sensor_id;sensor_type;location;lat;lon;timestamp;P1;durP1;ratioP1;P2;durP2;ratioP2
67442;SDS011;54311;51.726;5.154;2023-04-25T00:00:32;13.13;;;6.72;;
67442;SDS011;54311;51.726;5.154;2023-04-25T00:02:57;16.77;;;7.30;;
67442;SDS011;54311;51.726;5.154;2023-04-25T00:05:24;12.57;;;7.55;;
67442;SDS011;54311;51.726;5.154;2023-04-25T00:07:51;14.82;;;6.70;;
67442;SDS011;54311;51.726;5.154;2023-04-25T00:10:16;13.07;;;7.47;;
67442;SDS011;54311;51.726;5.154;2023-04-25T00:12:41;13.85;;;6.80;;
67442;SDS011;54311;51.726;5.154;2023-04-25T00:15:07;10.80;;;6.75;;
67442;SDS011;54311;51.726;5.154;2023-04-25T00:17:32;11.35;;;7.43;;
67442;SDS011;54311;51.726;5.154;2023-04-25T00:19:59;11.43;;;6.57;;
67442;SDS011;54311;51.726;5.154;2023-04-25T00:22:25;13.80;;;7.60;;
67442;SDS011;54311;51.726;5.154;2023-04-25T00:24:50;20.50;;;7.90;;
67442;SDS011;54311;51.726;5.154;2023-04-25T00:27:18;13.13;;;7.22;;
67442;SDS011;54311;51.726;5.154;2023-04-25T00:29:43;14.05;;;6.93;;
67442;SDS011;54311;51.726;5.154;2023-04-25T00:32:08;12.98;;;8.13;;
67442;SDS011;54311;51.726;5.154;2023-04-25T00:34:34;16.27;;;7.45;;
67442;SDS011;54311;51.726;5.154;2023-04-25T00:37:00;13.07;;;7.20;;
67442;SDS011;54311;51.726;5.154;2023-04-25T00:39:27;15.50;;;8.02;;
67442;SDS011;54311;51.726;5.154;2023-04-25T00:41:52;16.25;;;7.25;;
67442;SDS011;54311;51.726;5.154;2023-04-25T00:44:19;12.52;;;7.30;;
67442;SDS011;54311;51.726;5.154;2023-04-25T00:46:45;13.82;;;7.38;;
67442;SDS011;54311;51.726;5.154;2023-04-25T00:49:12;12.88;;;7.43;;
67442;SDS011;54311;51.726;5.154;2023-04-25T00:51:40;12.07;;;7.50;;
67442;SDS011;54311;51.726;5.154;2023-04-25T00:54:06;16.88;;;7.28;;
67442;SDS011;54311;51.726;5.154;2023-04-25T00:56:31;19.58;;;8.18;;
67442;SDS011;54311;51.726;5.154;2023-04-25T00:58:56;13.30;;;6.88;;
67442;SDS011;54311;51.726;5.154;2023-04-25T01:01:22;16.45;;;7.45;;
67442;SDS011;54311;51.726;5.154;2023-04-25T01:03:47;20.92;;;8.20;;
67442;SDS011;54311;51.726;5.154;2023-04-25T01:06:14;15.05;;;8.05;;
67442;SDS011;54311;51.726;5.154;2023-04-25T01:08:41;19.60;;;7.38;;
67442;SDS011;54311;51.726;5.154;2023-04-25T01:11:06;15.55;;;7.65;;
67442;SDS011;54311;51.726;5.154;2023-04-25T01:13:32;17.15;;;7.72;;
67442;SDS011;54311;51.726;5.154;2023-04-25T01:15:58;13.65;;;6.95;;
67442;SDS011;54311;51.726;5.154;2023-04-25T01:18:24;17.70;;;7.32;;
67442;SDS011;54311;51.726;5.154;2023-04-25T01:20:50;26.63;;;8.38;;
67442;SDS011;54311;51.726;5.154;2023-04-25T01:23:16;21.95;;;8.02;;
67442;SDS011;54311;51.726;5.154;2023-04-25T01:25:41;13.05;;;7.35;;
67442;SDS011;54311;51.726;5.154;2023-04-25T01:28:07;16.58;;;8.23;;
67442;SDS011;54311;51.726;5.154;2023-04-25T01:30:32;14.57;;;7.30;;
67442;SDS011;54311;51.726;5.154;2023-04-25T01:32:58;16.38;;;7.93;;
67442;SDS011;54311;51.726;5.154;2023-04-25T01:35:25;15.55;;;7.60;;
67442;SDS011;54311;51.726;5.154;2023-04-25T01:37:50;31.75;;;8.70;;
67442;SDS011;54311;51.726;5.154;2023-04-25T01:40:16;16.90;;;7.85;;
67442;SDS011;54311;51.726;5.154;2023-04-25T01:42:43;23.23;;;8.02;;
67442;SDS011;54311;51.726;5.154;2023-04-25T01:45:09;26.98;;;8.13;;
67442;SDS011;54311;51.726;5.154;2023-04-25T01:47:35;15.90;;;8.10;;
67442;SDS011;54311;51.726;5.154;2023-04-25T01:50:02;14.50;;;7.97;;
67442;SDS011;54311;51.726;5.154;2023-04-25T01:52:28;18.08;;;8.18;;
67442;SDS011;54311;51.726;5.154;2023-04-25T01:54:53;17.63;;;8.15;;
67442;SDS011;54311;51.726;5.154;2023-04-25T01:57:19;18.10;;;7.90;;
67442;SDS011;54311;51.726;5.154;2023-04-25T01:59:45;19.73;;;8.02;;
67442;SDS011;54311;51.726;5.154;2023-04-25T02:02:10;16.77;;;8.02;;
67442;SDS011;54311;51.726;5.154;2023-04-25T02:04:36;21.70;;;7.97;;
67442;SDS011;54311;51.726;5.154;2023-04-25T02:07:01;19.90;;;8.30;;
67442;SDS011;54311;51.726;5.154;2023-04-25T02:09:27;18.88;;;7.57;;
67442;SDS011;54311;51.726;5.154;2023-04-25T02:11:52;22.92;;;7.53;;
67442;SDS011;54311;51.726;5.154;2023-04-25T02:14:17;18.45;;;9.00;;
67442;SDS011;54311;51.726;5.154;2023-04-25T02:16:43;19.88;;;8.18;;
67442;SDS011;54311;51.726;5.154;2023-04-25T02:19:11;19.08;;;8.38;;
67442;SDS011;54311;51.726;5.154;2023-04-25T02:21:36;16.40;;;8.30;;
67442;SDS011;54311;51.726;5.154;2023-04-25T02:24:02;17.48;;;8.52;;
67442;SDS011;54311;51.726;5.154;2023-04-25T02:26:28;17.02;;;7.97;;
67442;SDS011;54311;51.726;5.154;2023-04-25T02:28:54;18.92;;;7.85;;
67442;SDS011;54311;51.726;5.154;2023-04-25T02:31:20;28.98;;;8.38;;
67442;SDS011;54311;51.726;5.154;2023-04-25T02:33:46;21.35;;;8.30;;
67442;SDS011;54311;51.726;5.154;2023-04-25T02:36:12;12.85;;;7.05;;
67442;SDS011;54311;51.726;5.154;2023-04-25T02:38:37;16.88;;;8.00;;
67442;SDS011;54311;51.726;5.154;2023-04-25T02:41:03;20.60;;;8.00;;
67442;SDS011;54311;51.726;5.154;2023-04-25T02:43:28;24.48;;;8.40;;
67442;SDS011;54311;51.726;5.154;2023-04-25T02:45:53;17.30;;;7.78;;
67442;SDS011;54311;51.726;5.154;2023-04-25T02:48:19;26.50;;;9.20;;
67442;SDS011;54311;51.726;5.154;2023-04-25T02:50:44;18.45;;;8.57;;
67442;SDS011;54311;51.726;5.154;2023-04-25T02:53:10;19.92;;;8.25;;
67442;SDS011;54311;51.726;5.154;2023-04-25T02:55:35;17.25;;;8.82;;
67442;SDS011;54311;51.726;5.154;2023-04-25T02:58:01;24.05;;;8.70;;
67442;SDS011;54311;51.726;5.154;2023-04-25T03:00:26;19.80;;;8.63;;
67442;SDS011;54311;51.726;5.154;2023-04-25T03:02:51;20.40;;;8.73;;
67442;SDS011;54311;51.726;5.154;2023-04-25T03:05:17;22.92;;;9.02;;
67442;SDS011;54311;51.726;5.154;2023-04-25T03:07:42;23.77;;;8.60;;
67442;SDS011;54311;51.726;5.154;2023-04-25T03:10:09;18.83;;;8.07;;
67442;SDS011;54311;51.726;5.154;2023-04-25T03:12:35;23.67;;;8.65;;
67442;SDS011;54311;51.726;5.154;2023-04-25T03:15:00;15.23;;;8.35;;
67442;SDS011;54311;51.726;5.154;2023-04-25T03:17:26;17.95;;;8.75;;
67442;SDS011;54311;51.726;5.154;2023-04-25T03:19:51;21.83;;;8.77;;
67442;SDS011;54311;51.726;5.154;2023-04-25T03:22:16;18.73;;;8.05;;
67442;SDS011;54311;51.726;5.154;2023-04-25T03:24:41;17.52;;;8.75;;
67442;SDS011;54311;51.726;5.154;2023-04-25T03:27:08;15.98;;;8.55;;
67442;SDS011;54311;51.726;5.154;2023-04-25T03:29:33;16.60;;;8.52;;
67442;SDS011;54311;51.726;5.154;2023-04-25T03:31:59;17.88;;;8.90;;
67442;SDS011;54311;51.726;5.154;2023-04-25T03:34:24;16.75;;;8.07;;
67442;SDS011;54311;51.726;5.154;2023-04-25T03:36:50;20.33;;;7.75;;
67442;SDS011;54311;51.726;5.154;2023-04-25T03:39:16;17.55;;;7.53;;
67442;SDS011;54311;51.726;5.154;2023-04-25T03:41:41;18.98;;;8.18;;
67442;SDS011;54311;51.726;5.154;2023-04-25T03:44:07;20.98;;;8.55;;
67442;SDS011;54311;51.726;5.154;2023-04-25T03:46:32;18.48;;;7.63;;
67442;SDS011;54311;51.726;5.154;2023-04-25T03:48:57;15.65;;;7.30;;
67442;SDS011;54311;51.726;5.154;2023-04-25T03:51:24;17.33;;;7.93;;
67442;SDS011;54311;51.726;5.154;2023-04-25T03:53:51;19.58;;;7.50;;
67442;SDS011;54311;51.726;5.154;2023-04-25T03:56:17;19.48;;;7.72;;
67442;SDS011;54311;51.726;5.154;2023-04-25T03:58:42;12.88;;;8.00;;
67442;SDS011;54311;51.726;5.154;2023-04-25T04:01:10;15.90;;;7.63;;
67442;SDS011;54311;51.726;5.154;2023-04-25T04:03:36;21.50;;;8.07;;
67442;SDS011;54311;51.726;5.154;2023-04-25T04:06:02;16.63;;;7.45;;
67442;SDS011;54311;51.726;5.154;2023-04-25T04:08:29;18.92;;;8.50;;
67442;SDS011;54311;51.726;5.154;2023-04-25T04:10:54;22.60;;;8.10;;
67442;SDS011;54311;51.726;5.154;2023-04-25T04:13:20;13.50;;;7.43;;
67442;SDS011;54311;51.726;5.154;2023-04-25T04:15:45;22.13;;;8.48;;
67442;SDS011;54311;51.726;5.154;2023-04-25T04:18:10;17.67;;;8.10;;
67442;SDS011;54311;51.726;5.154;2023-04-25T04:20:36;15.30;;;7.70;;
67442;SDS011;54311;51.726;5.154;2023-04-25T04:23:01;21.25;;;8.00;;
67442;SDS011;54311;51.726;5.154;2023-04-25T04:25:26;18.88;;;8.20;;
67442;SDS011;54311;51.726;5.154;2023-04-25T04:27:52;18.00;;;7.38;;
67442;SDS011;54311;51.726;5.154;2023-04-25T04:30:20;17.15;;;7.75;;
67442;SDS011;54311;51.726;5.154;2023-04-25T04:32:54;16.23;;;8.15;;
67442;SDS011;54311;51.726;5.154;2023-04-25T04:35:20;18.80;;;8.02;;
67442;SDS011;54311;51.726;5.154;2023-04-25T04:37:46;20.17;;;8.27;;
67442;SDS011;54311;51.726;5.154;2023-04-25T04:40:14;17.63;;;7.78;;
67442;SDS011;54311;51.726;5.154;2023-04-25T04:42:41;16.83;;;7.63;;
67442;SDS011;54311;51.726;5.154;2023-04-25T04:45:06;15.88;;;8.15;;
67442;SDS011;54311;51.726;5.154;2023-04-25T04:47:32;15.38;;;8.18;;
67442;SDS011;54311;51.726;5.154;2023-04-25T04:49:58;16.63;;;7.85;;
67442;SDS011;54311;51.726;5.154;2023-04-25T04:52:24;21.48;;;7.53;;
67442;SDS011;54311;51.726;5.154;2023-04-25T04:54:49;18.55;;;7.93;;
67442;SDS011;54311;51.726;5.154;2023-04-25T04:57:15;17.85;;;7.57;;
67442;SDS011;54311;51.726;5.154;2023-04-25T04:59:41;16.35;;;7.93;;
67442;SDS011;54311;51.726;5.154;2023-04-25T05:02:06;16.42;;;7.88;;
67442;SDS011;54311;51.726;5.154;2023-04-25T05:04:32;17.45;;;7.75;;
67442;SDS011;54311;51.726;5.154;2023-04-25T05:06:57;20.25;;;8.13;;
67442;SDS011;54311;51.726;5.154;2023-04-25T05:09:22;13.70;;;7.53;;
67442;SDS011;54311;51.726;5.154;2023-04-25T05:11:50;17.80;;;7.75;;
67442;SDS011;54311;51.726;5.154;2023-04-25T05:14:16;13.73;;;7.13;;
67442;SDS011;54311;51.726;5.154;2023-04-25T05:16:42;19.98;;;8.32;;
67442;SDS011;54311;51.726;5.154;2023-04-25T05:19:08;21.85;;;8.20;;
67442;SDS011;54311;51.726;5.154;2023-04-25T05:21:33;15.45;;;7.63;;
67442;SDS011;54311;51.726;5.154;2023-04-25T05:23:59;16.90;;;7.38;;
67442;SDS011;54311;51.726;5.154;2023-04-25T05:26:25;13.18;;;7.22;;
67442;SDS011;54311;51.726;5.154;2023-04-25T05:28:50;18.75;;;8.05;;
67442;SDS011;54311;51.726;5.154;2023-04-25T05:31:16;16.35;;;7.05;;
67442;SDS011;54311;51.726;5.154;2023-04-25T05:33:41;17.90;;;7.85;;
67442;SDS011;54311;51.726;5.154;2023-04-25T05:36:06;19.95;;;7.18;;
67442;SDS011;54311;51.726;5.154;2023-04-25T05:38:32;20.13;;;7.32;;
67442;SDS011;54311;51.726;5.154;2023-04-25T05:40:58;13.05;;;7.72;;
67442;SDS011;54311;51.726;5.154;2023-04-25T05:43:23;11.13;;;7.10;;
67442;SDS011;54311;51.726;5.154;2023-04-25T05:45:48;12.57;;;8.15;;
67442;SDS011;54311;51.726;5.154;2023-04-25T05:48:14;12.18;;;6.53;;
67442;SDS011;54311;51.726;5.154;2023-04-25T05:50:39;13.48;;;6.40;;
67442;SDS011;54311;51.726;5.154;2023-04-25T05:53:04;13.00;;;6.45;;
67442;SDS011;54311;51.726;5.154;2023-04-25T05:55:30;17.58;;;6.75;;
67442;SDS011;54311;51.726;5.154;2023-04-25T05:57:56;18.48;;;6.30;;
67442;SDS011;54311;51.726;5.154;2023-04-25T06:00:21;14.77;;;5.80;;
67442;SDS011;54311;51.726;5.154;2023-04-25T06:02:47;14.05;;;6.10;;
67442;SDS011;54311;51.726;5.154;2023-04-25T06:05:13;16.35;;;6.03;;
67442;SDS011;54311;51.726;5.154;2023-04-25T06:07:38;9.95;;;5.75;;
67442;SDS011;54311;51.726;5.154;2023-04-25T06:10:03;12.68;;;6.65;;
67442;SDS011;54311;51.726;5.154;2023-04-25T06:12:31;12.68;;;5.55;;
67442;SDS011;54311;51.726;5.154;2023-04-25T06:14:58;9.68;;;5.68;;
67442;SDS011;54311;51.726;5.154;2023-04-25T06:17:23;13.63;;;5.80;;
67442;SDS011;54311;51.726;5.154;2023-04-25T06:19:48;12.43;;;5.65;;
67442;SDS011;54311;51.726;5.154;2023-04-25T06:22:13;10.98;;;5.22;;
67442;SDS011;54311;51.726;5.154;2023-04-25T06:24:39;10.30;;;5.47;;
67442;SDS011;54311;51.726;5.154;2023-04-25T06:27:04;11.50;;;5.38;;
67442;SDS011;54311;51.726;5.154;2023-04-25T06:29:30;11.82;;;5.60;;
67442;SDS011;54311;51.726;5.154;2023-04-25T06:31:55;10.38;;;4.57;;
67442;SDS011;54311;51.726;5.154;2023-04-25T06:34:20;13.82;;;5.68;;
67442;SDS011;54311;51.726;5.154;2023-04-25T06:36:46;10.02;;;4.90;;
67442;SDS011;54311;51.726;5.154;2023-04-25T06:39:11;7.57;;;5.32;;
67442;SDS011;54311;51.726;5.154;2023-04-25T06:41:36;9.60;;;4.82;;
67442;SDS011;54311;51.726;5.154;2023-04-25T06:44:02;9.95;;;5.30;;
67442;SDS011;54311;51.726;5.154;2023-04-25T06:46:27;12.18;;;4.70;;
67442;SDS011;54311;51.726;5.154;2023-04-25T06:48:53;9.98;;;5.35;;
67442;SDS011;54311;51.726;5.154;2023-04-25T06:51:18;7.20;;;5.03;;
67442;SDS011;54311;51.726;5.154;2023-04-25T06:53:43;10.27;;;4.85;;
67442;SDS011;54311;51.726;5.154;2023-04-25T06:56:09;13.82;;;5.50;;
67442;SDS011;54311;51.726;5.154;2023-04-25T06:58:35;10.70;;;4.90;;
67442;SDS011;54311;51.726;5.154;2023-04-25T07:01:00;10.80;;;5.28;;
67442;SDS011;54311;51.726;5.154;2023-04-25T07:03:26;12.05;;;5.40;;
67442;SDS011;54311;51.726;5.154;2023-04-25T07:05:51;7.65;;;4.90;;
67442;SDS011;54311;51.726;5.154;2023-04-25T07:08:16;8.20;;;5.10;;
67442;SDS011;54311;51.726;5.154;2023-04-25T07:10:42;15.07;;;5.50;;
67442;SDS011;54311;51.726;5.154;2023-04-25T07:13:07;6.70;;;4.60;;
67442;SDS011;54311;51.726;5.154;2023-04-25T07:15:33;11.55;;;5.25;;
67442;SDS011;54311;51.726;5.154;2023-04-25T07:17:58;11.80;;;4.55;;
67442;SDS011;54311;51.726;5.154;2023-04-25T07:20:24;11.00;;;4.30;;
67442;SDS011;54311;51.726;5.154;2023-04-25T07:22:49;10.05;;;4.80;;
67442;SDS011;54311;51.726;5.154;2023-04-25T07:25:15;8.02;;;5.30;;
67442;SDS011;54311;51.726;5.154;2023-04-25T07:27:41;11.52;;;5.18;;
67442;SDS011;54311;51.726;5.154;2023-04-25T07:30:06;9.90;;;4.65;;
67442;SDS011;54311;51.726;5.154;2023-04-25T07:32:32;11.60;;;4.90;;
67442;SDS011;54311;51.726;5.154;2023-04-25T07:34:57;10.00;;;4.53;;
67442;SDS011;54311;51.726;5.154;2023-04-25T07:37:23;11.95;;;5.63;;
67442;SDS011;54311;51.726;5.154;2023-04-25T07:39:48;12.18;;;4.78;;
67442;SDS011;54311;51.726;5.154;2023-04-25T07:42:13;10.27;;;4.70;;
67442;SDS011;54311;51.726;5.154;2023-04-25T07:44:39;11.65;;;4.80;;
67442;SDS011;54311;51.726;5.154;2023-04-25T07:47:08;9.55;;;4.53;;
67442;SDS011;54311;51.726;5.154;2023-04-25T07:49:37;12.15;;;5.07;;
67442;SDS011;54311;51.726;5.154;2023-04-25T07:52:03;11.43;;;4.82;;
67442;SDS011;54311;51.726;5.154;2023-04-25T07:54:31;7.72;;;4.63;;
67442;SDS011;54311;51.726;5.154;2023-04-25T07:56:56;9.07;;;4.65;;
67442;SDS011;54311;51.726;5.154;2023-04-25T07:59:22;7.47;;;4.43;;
67442;SDS011;54311;51.726;5.154;2023-04-25T08:01:47;10.10;;;4.72;;
67442;SDS011;54311;51.726;5.154;2023-04-25T08:04:13;8.65;;;4.45;;
67442;SDS011;54311;51.726;5.154;2023-04-25T08:06:38;8.10;;;4.40;;
67442;SDS011;54311;51.726;5.154;2023-04-25T08:09:05;9.48;;;4.43;;
67442;SDS011;54311;51.726;5.154;2023-04-25T08:11:30;12.43;;;4.72;;
67442;SDS011;54311;51.726;5.154;2023-04-25T08:13:56;10.13;;;4.45;;
67442;SDS011;54311;51.726;5.154;2023-04-25T08:16:21;10.30;;;4.05;;
67442;SDS011;54311;51.726;5.154;2023-04-25T08:18:47;13.10;;;5.07;;
67442;SDS011;54311;51.726;5.154;2023-04-25T08:21:12;10.80;;;4.43;;
67442;SDS011;54311;51.726;5.154;2023-04-25T08:23:38;7.22;;;4.28;;
67442;SDS011;54311;51.726;5.154;2023-04-25T08:26:03;13.30;;;4.47;;
67442;SDS011;54311;51.726;5.154;2023-04-25T08:28:30;11.52;;;4.20;;
67442;SDS011;54311;51.726;5.154;2023-04-25T08:30:55;12.25;;;4.25;;
67442;SDS011;54311;51.726;5.154;2023-04-25T08:33:20;13.43;;;4.40;;
67442;SDS011;54311;51.726;5.154;2023-04-25T08:35:46;11.73;;;4.30;;
67442;SDS011;54311;51.726;5.154;2023-04-25T08:38:11;8.23;;;4.10;;
67442;SDS011;54311;51.726;5.154;2023-04-25T08:40:37;11.32;;;4.68;;
67442;SDS011;54311;51.726;5.154;2023-04-25T08:43:05;16.80;;;4.57;;
67442;SDS011;54311;51.726;5.154;2023-04-25T08:45:36;8.38;;;4.18;;
67442;SDS011;54311;51.726;5.154;2023-04-25T08:48:16;7.75;;;4.07;;
67442;SDS011;54311;51.726;5.154;2023-04-25T08:53:17;8.77;;;3.83;;
67442;SDS011;54311;51.726;5.154;2023-04-25T08:55:45;8.23;;;4.32;;
67442;SDS011;54311;51.726;5.154;2023-04-25T08:58:11;11.27;;;4.70;;
67442;SDS011;54311;51.726;5.154;2023-04-25T09:00:38;10.70;;;4.75;;
67442;SDS011;54311;51.726;5.154;2023-04-25T09:03:03;15.32;;;4.15;;
67442;SDS011;54311;51.726;5.154;2023-04-25T09:05:28;8.00;;;4.45;;
67442;SDS011;54311;51.726;5.154;2023-04-25T09:07:54;8.07;;;4.20;;
67442;SDS011;54311;51.726;5.154;2023-04-25T09:10:19;13.43;;;4.90;;
67442;SDS011;54311;51.726;5.154;2023-04-25T09:12:44;11.73;;;4.38;;
67442;SDS011;54311;51.726;5.154;2023-04-25T09:15:31;5.97;;;3.80;;
67442;SDS011;54311;51.726;5.154;2023-04-25T09:17:57;10.93;;;4.40;;
67442;SDS011;54311;51.726;5.154;2023-04-25T09:20:23;7.53;;;3.67;;
67442;SDS011;54311;51.726;5.154;2023-04-25T09:22:49;6.55;;;3.38;;
67442;SDS011;54311;51.726;5.154;2023-04-25T09:25:15;10.85;;;3.65;;
67442;SDS011;54311;51.726;5.154;2023-04-25T09:27:50;6.57;;;3.70;;
67442;SDS011;54311;51.726;5.154;2023-04-25T09:30:17;6.38;;;3.63;;
67442;SDS011;54311;51.726;5.154;2023-04-25T09:32:43;11.43;;;3.50;;
67442;SDS011;54311;51.726;5.154;2023-04-25T09:35:08;4.43;;;3.47;;
67442;SDS011;54311;51.726;5.154;2023-04-25T09:37:34;6.35;;;3.67;;
67442;SDS011;54311;51.726;5.154;2023-04-25T09:40:00;5.45;;;3.67;;
67442;SDS011;54311;51.726;5.154;2023-04-25T09:42:31;4.93;;;3.00;;
67442;SDS011;54311;51.726;5.154;2023-04-25T09:44:57;7.00;;;3.55;;
67442;SDS011;54311;51.726;5.154;2023-04-25T09:47:26;9.60;;;3.20;;
67442;SDS011;54311;51.726;5.154;2023-04-25T09:49:53;10.23;;;3.58;;
67442;SDS011;54311;51.726;5.154;2023-04-25T09:52:20;5.45;;;3.40;;
67442;SDS011;54311;51.726;5.154;2023-04-25T09:54:47;8.13;;;3.45;;
67442;SDS011;54311;51.726;5.154;2023-04-25T09:57:17;10.45;;;3.95;;
67442;SDS011;54311;51.726;5.154;2023-04-25T09:59:46;7.47;;;3.35;;
67442;SDS011;54311;51.726;5.154;2023-04-25T10:02:14;8.88;;;3.35;;
67442;SDS011;54311;51.726;5.154;2023-04-25T10:04:42;13.68;;;3.92;;
67442;SDS011;54311;51.726;5.154;2023-04-25T10:07:10;6.05;;;3.40;;
67442;SDS011;54311;51.726;5.154;2023-04-25T10:09:36;8.88;;;3.30;;
67442;SDS011;54311;51.726;5.154;2023-04-25T10:12:04;9.27;;;3.42;;
67442;SDS011;54311;51.726;5.154;2023-04-25T10:14:30;7.72;;;3.65;;
67442;SDS011;54311;51.726;5.154;2023-04-25T10:16:59;7.15;;;3.97;;
67442;SDS011;54311;51.726;5.154;2023-04-25T10:19:25;7.65;;;3.55;;
67442;SDS011;54311;51.726;5.154;2023-04-25T10:21:52;7.07;;;3.90;;
67442;SDS011;54311;51.726;5.154;2023-04-25T10:24:26;8.07;;;3.17;;
67442;SDS011;54311;51.726;5.154;2023-04-25T10:26:52;11.93;;;4.18;;
67442;SDS011;54311;51.726;5.154;2023-04-25T10:29:24;6.22;;;3.30;;
67442;SDS011;54311;51.726;5.154;2023-04-25T10:31:50;5.47;;;3.35;;
67442;SDS011;54311;51.726;5.154;2023-04-25T10:34:16;3.30;;;3.10;;
67442;SDS011;54311;51.726;5.154;2023-04-25T10:36:42;4.85;;;3.20;;
67442;SDS011;54311;51.726;5.154;2023-04-25T10:39:07;9.48;;;3.80;;
67442;SDS011;54311;51.726;5.154;2023-04-25T10:41:45;8.32;;;4.05;;
67442;SDS011;54311;51.726;5.154;2023-04-25T10:44:12;6.65;;;3.70;;
67442;SDS011;54311;51.726;5.154;2023-04-25T10:46:38;10.00;;;4.60;;
67442;SDS011;54311;51.726;5.154;2023-04-25T10:49:04;11.63;;;4.35;;
67442;SDS011;54311;51.726;5.154;2023-04-25T10:51:33;6.22;;;3.78;;
67442;SDS011;54311;51.726;5.154;2023-04-25T10:56:26;8.80;;;3.30;;
67442;SDS011;54311;51.726;5.154;2023-04-25T10:59:04;5.95;;;3.78;;
67442;SDS011;54311;51.726;5.154;2023-04-25T11:01:39;7.10;;;3.50;;
67442;SDS011;54311;51.726;5.154;2023-04-25T11:04:05;9.65;;;3.45;;
67442;SDS011;54311;51.726;5.154;2023-04-25T11:09:27;4.90;;;3.42;;
67442;SDS011;54311;51.726;5.154;2023-04-25T11:11:56;5.40;;;2.53;;
67442;SDS011;54311;51.726;5.154;2023-04-25T11:14:23;2.95;;;2.55;;
67442;SDS011;54311;51.726;5.154;2023-04-25T11:16:52;3.08;;;2.90;;
67442;SDS011;54311;51.726;5.154;2023-04-25T11:19:19;5.65;;;2.90;;
67442;SDS011;54311;51.726;5.154;2023-04-25T11:21:45;6.65;;;3.47;;
67442;SDS011;54311;51.726;5.154;2023-04-25T11:24:10;6.22;;;2.75;;
67442;SDS011;54311;51.726;5.154;2023-04-25T11:26:36;7.32;;;2.92;;
67442;SDS011;54311;51.726;5.154;2023-04-25T11:29:02;7.13;;;3.17;;
67442;SDS011;54311;51.726;5.154;2023-04-25T11:31:28;4.45;;;3.08;;
67442;SDS011;54311;51.726;5.154;2023-04-25T11:33:54;3.40;;;3.10;;
67442;SDS011;54311;51.726;5.154;2023-04-25T11:36:22;4.90;;;3.00;;
67442;SDS011;54311;51.726;5.154;2023-04-25T11:38:48;6.88;;;2.88;;
67442;SDS011;54311;51.726;5.154;2023-04-25T11:41:15;6.30;;;3.40;;
67442;SDS011;54311;51.726;5.154;2023-04-25T11:43:42;5.38;;;2.70;;
67442;SDS011;54311;51.726;5.154;2023-04-25T11:46:08;7.97;;;2.70;;
67442;SDS011;54311;51.726;5.154;2023-04-25T11:48:40;3.35;;;2.30;;
67442;SDS011;54311;51.726;5.154;2023-04-25T11:51:05;6.88;;;2.92;;
67442;SDS011;54311;51.726;5.154;2023-04-25T11:53:31;6.07;;;2.92;;
67442;SDS011;54311;51.726;5.154;2023-04-25T11:55:56;5.43;;;3.13;;
67442;SDS011;54311;51.726;5.154;2023-04-25T11:58:22;6.38;;;2.80;;
67442;SDS011;54311;51.726;5.154;2023-04-25T12:00:47;5.50;;;3.38;;
67442;SDS011;54311;51.726;5.154;2023-04-25T12:03:13;10.25;;;3.50;;
67442;SDS011;54311;51.726;5.154;2023-04-25T12:05:38;3.50;;;2.80;;
67442;SDS011;54311;51.726;5.154;2023-04-25T12:08:11;5.60;;;3.30;;
67442;SDS011;54311;51.726;5.154;2023-04-25T12:10:40;4.47;;;3.70;;
67442;SDS011;54311;51.726;5.154;2023-04-25T12:13:23;5.68;;;3.38;;
67442;SDS011;54311;51.726;5.154;2023-04-25T12:15:50;4.20;;;3.30;;
67442;SDS011;54311;51.726;5.154;2023-04-25T12:18:18;7.90;;;3.10;;
67442;SDS011;54311;51.726;5.154;2023-04-25T12:20:45;9.00;;;3.97;;
67442;SDS011;54311;51.726;5.154;2023-04-25T12:23:10;6.68;;;3.80;;
67442;SDS011;54311;51.726;5.154;2023-04-25T12:25:42;11.20;;;4.13;;
67442;SDS011;54311;51.726;5.154;2023-04-25T12:28:16;8.50;;;3.88;;
67442;SDS011;54311;51.726;5.154;2023-04-25T12:33:29;11.48;;;4.07;;
67442;SDS011;54311;51.726;5.154;2023-04-25T12:35:56;7.75;;;3.55;;
67442;SDS011;54311;51.726;5.154;2023-04-25T12:38:26;7.18;;;4.22;;
67442;SDS011;54311;51.726;5.154;2023-04-25T12:40:54;9.02;;;4.10;;
67442;SDS011;54311;51.726;5.154;2023-04-25T12:43:19;8.10;;;4.20;;
67442;SDS011;54311;51.726;5.154;2023-04-25T12:45:47;9.95;;;4.38;;
67442;SDS011;54311;51.726;5.154;2023-04-25T12:48:14;7.25;;;3.42;;
67442;SDS011;54311;51.726;5.154;2023-04-25T12:50:39;6.03;;;3.90;;
67442;SDS011;54311;51.726;5.154;2023-04-25T12:53:06;6.97;;;3.83;;
67442;SDS011;54311;51.726;5.154;2023-04-25T12:55:31;8.00;;;3.70;;
67442;SDS011;54311;51.726;5.154;2023-04-25T12:57:56;5.97;;;3.25;;
67442;SDS011;54311;51.726;5.154;2023-04-25T13:00:22;8.07;;;4.00;;
67442;SDS011;54311;51.726;5.154;2023-04-25T13:02:47;9.00;;;4.15;;
67442;SDS011;54311;51.726;5.154;2023-04-25T13:05:12;7.47;;;4.05;;
67442;SDS011;54311;51.726;5.154;2023-04-25T13:07:38;8.85;;;4.10;;
67442;SDS011;54311;51.726;5.154;2023-04-25T13:10:03;6.68;;;3.50;;
67442;SDS011;54311;51.726;5.154;2023-04-25T13:12:30;6.32;;;3.08;;
67442;SDS011;54311;51.726;5.154;2023-04-25T13:14:56;5.32;;;3.42;;
67442;SDS011;54311;51.726;5.154;2023-04-25T13:17:21;10.00;;;3.30;;
67442;SDS011;54311;51.726;5.154;2023-04-25T13:19:47;10.27;;;3.88;;
67442;SDS011;54311;51.726;5.154;2023-04-25T13:22:12;15.45;;;3.90;;
67442;SDS011;54311;51.726;5.154;2023-04-25T13:24:40;5.95;;;3.20;;
67442;SDS011;54311;51.726;5.154;2023-04-25T13:27:05;7.45;;;3.67;;
67442;SDS011;54311;51.726;5.154;2023-04-25T13:29:31;5.57;;;3.25;;
67442;SDS011;54311;51.726;5.154;2023-04-25T13:31:56;8.73;;;3.45;;
67442;SDS011;54311;51.726;5.154;2023-04-25T13:34:21;6.25;;;3.20;;
67442;SDS011;54311;51.726;5.154;2023-04-25T13:36:47;5.85;;;3.55;;
67442;SDS011;54311;51.726;5.154;2023-04-25T13:39:12;7.43;;;3.58;;
67442;SDS011;54311;51.726;5.154;2023-04-25T13:41:38;6.60;;;3.28;;
67442;SDS011;54311;51.726;5.154;2023-04-25T13:44:03;6.70;;;3.28;;
67442;SDS011;54311;51.726;5.154;2023-04-25T13:46:29;7.00;;;3.03;;
67442;SDS011;54311;51.726;5.154;2023-04-25T13:48:54;6.00;;;3.67;;
67442;SDS011;54311;51.726;5.154;2023-04-25T13:51:19;4.38;;;3.67;;
67442;SDS011;54311;51.726;5.154;2023-04-25T13:53:45;5.40;;;2.83;;
67442;SDS011;54311;51.726;5.154;2023-04-25T13:56:11;3.45;;;3.13;;
67442;SDS011;54311;51.726;5.154;2023-04-25T13:58:36;11.45;;;3.75;;
67442;SDS011;54311;51.726;5.154;2023-04-25T14:01:02;8.95;;;4.07;;
67442;SDS011;54311;51.726;5.154;2023-04-25T14:03:28;3.88;;;3.40;;
67442;SDS011;54311;51.726;5.154;2023-04-25T14:05:53;7.93;;;3.20;;
67442;SDS011;54311;51.726;5.154;2023-04-25T14:08:18;3.08;;;2.78;;
67442;SDS011;54311;51.726;5.154;2023-04-25T14:10:44;6.25;;;3.50;;
67442;SDS011;54311;51.726;5.154;2023-04-25T14:13:10;7.20;;;3.05;;
67442;SDS011;54311;51.726;5.154;2023-04-25T14:15:36;5.50;;;3.00;;
67442;SDS011;54311;51.726;5.154;2023-04-25T14:18:01;6.80;;;3.55;;
67442;SDS011;54311;51.726;5.154;2023-04-25T14:20:26;9.82;;;3.95;;
67442;SDS011;54311;51.726;5.154;2023-04-25T14:22:52;7.10;;;3.60;;
67442;SDS011;54311;51.726;5.154;2023-04-25T14:25:19;5.80;;;3.40;;
67442;SDS011;54311;51.726;5.154;2023-04-25T14:27:44;7.47;;;3.63;;
67442;SDS011;54311;51.726;5.154;2023-04-25T14:30:14;7.97;;;3.75;;
67442;SDS011;54311;51.726;5.154;2023-04-25T14:32:40;4.82;;;3.83;;
67442;SDS011;54311;51.726;5.154;2023-04-25T14:35:05;5.25;;;3.55;;
67442;SDS011;54311;51.726;5.154;2023-04-25T14:37:32;14.88;;;3.28;;
67442;SDS011;54311;51.726;5.154;2023-04-25T14:39:57;9.68;;;4.07;;
67442;SDS011;54311;51.726;5.154;2023-04-25T14:42:22;5.88;;;3.67;;
67442;SDS011;54311;51.726;5.154;2023-04-25T14:44:48;6.30;;;3.53;;